Time;durP1;ratioP1;P1;durP2;ratioP2;P2;SDS_P1;SDS_P2;PMS_P1;PMS_P2;Temp;Humidity;BMP_temperature;BMP_pressure;BME280_temperature;BME280_humidity;BME280_pressure;Samples;Min_cycle;Max_cycle;Signal;HPM_P1;HPM_P2
2022/01/19 00:02:02;;;;;;;14.85;5.57;;;;;;;3.10;94.69;102768.06;6069140;28;20030;-74
2022/01/19 00:04:57;;;;;;;18.27;5.30;;;;;;;3.13;94.12;102770.59;6072721;28;20038;-73
2022/01/19 00:07:52;;;;;;;19.50;5.60;;;;;;;3.10;94.03;102781.16;6074739;28;20026;-74
2022/01/19 00:10:50;;;;;;;17.47;6.37;;;;;;;3.09;93.35;102776.84;6064915;28;20068;-75
2022/01/19 00:13:45;;;;;;;17.30;5.50;;;;;;;2.98;93.27;102784.16;6058833;28;20048;-74
2022/01/19 00:16:41;;;;;;;14.37;4.93;;;;;;;2.91;93.37;102778.25;6074454;28;20413;-74
2022/01/19 00:19:36;;;;;;;16.47;5.57;;;;;;;2.85;93.17;102777.59;6073058;28;20351;-74
2022/01/19 00:22:32;;;;;;;18.33;6.20;;;;;;;2.91;92.89;102775.63;6074697;28;20037;-74
2022/01/19 00:25:28;;;;;;;14.02;4.72;;;;;;;2.93;93.25;102772.97;6072769;28;20272;-74
2022/01/19 00:28:24;;;;;;;19.90;6.10;;;;;;;2.87;93.05;102762.69;6074357;28;20084;-74
2022/01/19 00:31:19;;;;;;;19.00;5.25;;;;;;;2.85;93.01;102743.53;6073978;28;20036;-74
2022/01/19 00:34:14;;;;;;;20.30;6.03;;;;;;;2.82;92.60;102733.16;6073912;28;20041;-74
2022/01/19 00:37:10;;;;;;;20.37;5.83;;;;;;;2.82;92.45;102727.91;6074353;28;20033;-74
2022/01/19 00:40:06;;;;;;;21.13;5.77;;;;;;;2.82;93.57;102725.28;6073264;28;20060;-74
2022/01/19 00:43:01;;;;;;;19.90;5.78;;;;;;;2.75;92.94;102727.22;6074518;28;20108;-74
2022/01/19 00:45:56;;;;;;;19.60;6.53;;;;;;;2.69;92.78;102714.31;6069594;28;20377;-74
2022/01/19 00:48:52;;;;;;;21.30;6.47;;;;;;;2.49;92.60;102707.97;6072276;28;20037;-74
2022/01/19 00:51:47;;;;;;;17.87;6.13;;;;;;;2.37;92.99;102724.88;6064623;28;20350;-74
2022/01/19 00:54:42;;;;;;;23.55;6.32;;;;;;;2.28;93.20;102720.75;6068867;28;20018;-73
2022/01/19 00:57:39;;;;;;;20.57;6.60;;;;;;;2.16;92.99;102721.13;6073349;28;20025;-72
2022/01/19 01:00:35;;;;;;;18.30;6.88;;;;;;;2.04;93.69;102721.44;6073239;28;20025;-72
2022/01/19 01:03:30;;;;;;;16.67;6.60;;;;;;;2.01;93.59;102711.06;6074136;28;20076;-72
2022/01/19 01:06:25;;;;;;;21.60;7.13;;;;;;;1.94;94.48;102720.00;6073871;28;20033;-73
2022/01/19 01:09:21;;;;;;;19.37;6.23;;;;;;;1.77;94.40;102723.06;6066096;28;20061;-73
2022/01/19 01:12:32;;;;;;;18.38;5.63;;;;;;;1.58;94.95;102713.13;6064195;28;20494;-72
2022/01/19 01:18:23;;;;;;;20.38;6.60;;;;;;;1.45;95.31;102704.75;6074134;28;20112;-72
2022/01/19 01:21:19;;;;;;;18.07;5.90;;;;;;;1.35;95.63;102702.41;6072665;28;20045;-73
2022/01/19 01:24:14;;;;;;;17.53;5.30;;;;;;;1.23;95.61;102700.06;6073147;28;20033;-72
2022/01/19 01:27:09;;;;;;;22.47;7.30;;;;;;;1.32;95.98;102702.47;6074115;28;20456;-72
2022/01/19 01:30:06;;;;;;;24.50;6.97;;;;;;;1.18;95.63;102688.00;6063707;28;20029;-73
2022/01/19 01:33:02;;;;;;;20.25;7.18;;;;;;;1.09;95.92;102677.78;6070116;28;20034;-73
2022/01/19 01:35:57;;;;;;;23.08;6.63;;;;;;;1.00;96.66;102671.94;6072346;28;20503;-72
2022/01/19 01:38:52;;;;;;;20.97;7.47;;;;;;;0.92;96.17;102663.41;6071826;28;20029;-72
2022/01/19 01:41:48;;;;;;;26.07;7.67;;;;;;;0.98;96.91;102661.50;6072701;28;20033;-72
2022/01/19 01:44:47;;;;;;;30.33;10.30;;;;;;;1.01;96.42;102637.91;6072789;28;20033;-73
2022/01/19 01:47:55;;;;;;;30.13;8.43;;;;;;;1.00;96.13;102617.06;6071810;28;20030;-72
2022/01/19 01:54:06;;;;;;;25.65;8.18;;;;;;;1.00;96.57;102581.38;6072986;28;19909;-73
2022/01/19 01:57:01;;;;;;;22.40;7.78;;;;;;;0.75;96.52;102585.50;6060544;28;20476;-73
2022/01/19 01:59:56;;;;;;;24.70;7.75;;;;;;;0.64;96.54;102587.50;6072885;28;20088;-72
2022/01/19 02:02:52;;;;;;;23.03;7.83;;;;;;;0.63;96.84;102597.97;6072836;28;20083;-72
2022/01/19 02:09:16;;;;;;;23.63;7.00;;;;;;;0.55;96.59;102593.78;6072427;28;20472;-72
2022/01/19 02:22:00;;;;;;;20.92;6.18;;;;;;;0.47;97.02;102563.56;6072206;28;20037;-72
2022/01/19 02:24:56;;;;;;;17.98;6.57;;;;;;;0.46;96.71;102533.16;6071351;28;20108;-72
2022/01/19 02:31:50;;;;;;;21.42;6.47;;;;;;;0.81;96.83;102514.84;6067351;28;20042;-72
2022/01/19 02:40:57;;;;;;;23.25;7.40;;;;;;;0.88;97.09;102508.56;6071248;28;20041;-72
2022/01/19 02:43:55;;;;;;;25.42;7.43;;;;;;;0.79;97.01;102514.00;6072964;28;20030;-72
2022/01/19 02:50:05;;;;;;;27.02;7.72;;;;;;;0.58;97.50;102498.91;6072182;28;20116;-72
2022/01/19 02:53:00;;;;;;;28.73;6.47;;;;;;;0.53;96.23;102486.00;6071598;28;20041;-72
2022/01/19 02:55:56;;;;;;;15.00;5.63;;;;;;;0.68;97.25;102483.88;6070517;28;20116;-72
2022/01/19 02:58:53;;;;;;;19.97;6.50;;;;;;;0.52;96.92;102462.53;6073256;28;20041;-73
2022/01/19 03:11:31;;;;;;;24.48;5.93;;;;;;;0.71;96.66;102437.66;6060764;28;20033;-72
2022/01/19 03:14:26;;;;;;;22.30;7.10;;;;;;;0.50;96.80;102440.84;6076062;28;20029;-72
2022/01/19 03:17:21;;;;;;;18.13;6.33;;;;;;;0.37;96.62;102437.69;6076039;28;20037;-72
2022/01/19 03:20:17;;;;;;;19.17;5.43;;;;;;;0.19;97.08;102427.69;6075825;28;20393;-73
2022/01/19 03:23:20;;;;;;;19.17;6.13;;;;;;;0.06;96.54;102413.25;6075856;28;20459;-72
2022/01/19 03:26:16;;;;;;;13.75;5.38;;;;;;;-0.02;97.08;102412.59;6075789;28;20029;-72
2022/01/19 03:29:11;;;;;;;23.33;5.13;;;;;;;-0.17;97.01;102408.63;6076270;28;20095;-73
2022/01/19 03:32:07;;;;;;;16.90;5.40;;;;;;;0.00;96.97;102403.84;6075199;28;20280;-71
2022/01/19 03:35:02;;;;;;;15.40;5.35;;;;;;;-0.01;97.16;102396.06;6074669;28;20359;-72
2022/01/19 03:37:58;;;;;;;15.35;5.35;;;;;;;-0.13;97.30;102381.56;6071685;28;20033;-72
2022/01/19 03:40:53;;;;;;;19.48;6.30;;;;;;;-0.24;96.79;102380.09;6074624;28;20516;-72
2022/01/19 03:43:48;;;;;;;25.13;6.57;;;;;;;-0.42;97.24;102385.75;6075942;28;20021;-72
2022/01/19 03:46:56;;;;;;;17.43;6.80;;;;;;;-0.41;97.42;102385.75;6075690;28;20452;-72
2022/01/19 03:49:51;;;;;;;17.25;5.88;;;;;;;-0.41;97.54;102390.09;6075345;28;20401;-72
2022/01/19 03:52:46;;;;;;;18.23;5.87;;;;;;;-0.48;97.41;102391.97;6075289;28;20030;-72
2022/01/19 03:55:42;;;;;;;19.52;6.30;;;;;;;-0.46;97.56;102392.78;6074371;28;21186;-72
2022/01/19 03:58:37;;;;;;;23.08;7.20;;;;;;;-0.35;97.45;102390.78;6075241;28;20021;-72
2022/01/19 04:01:33;;;;;;;19.58;6.68;;;;;;;-0.24;97.46;102380.09;6074428;28;20030;-72
2022/01/19 04:04:42;;;;;;;25.30;6.47;;;;;;;-0.04;97.39;102373.53;6075139;28;20041;-72
2022/01/19 04:07:38;;;;;;;31.58;6.72;;;;;;;-0.09;97.63;102375.41;6071328;28;20087;-71
2022/01/19 04:10:33;;;;;;;21.57;5.73;;;;;;;-0.05;97.63;102352.69;6071620;28;20496;-72
2022/01/19 04:16:25;;;;;;;19.07;6.47;;;;;;;-0.13;97.52;102345.06;6067205;28;20034;-72
2022/01/19 04:22:25;;;;;;;23.23;6.35;;;;;;;-0.29;97.39;102325.50;6074260;28;20060;-73
2022/01/19 04:25:20;;;;;;;24.90;7.30;;;;;;;-0.13;97.67;102321.63;6072437;28;20030;-72
2022/01/19 04:28:15;;;;;;;26.03;6.83;;;;;;;-0.30;97.02;102334.19;6074562;28;20040;-73
2022/01/19 04:31:11;;;;;;;16.73;5.60;;;;;;;-0.22;97.13;102327.03;6074139;28;20322;-73
2022/01/19 04:34:07;;;;;;;20.10;6.27;;;;;;;-0.12;97.29;102312.91;6073930;28;20649;-73
2022/01/19 04:37:27;;;;;;;23.38;6.22;;;;;;;-0.15;97.36;102302.56;6074984;28;20034;-71
2022/01/19 05:03:39;;;;;;;18.27;4.63;;;;;;;-0.63;97.17;102269.91;6073617;28;20025;-72
2022/01/19 05:06:39;;;;;;;19.67;5.15;;;;;;;-0.77;96.99;102266.75;6074181;28;20068;-71
2022/01/19 05:15:44;;;;;;;28.45;8.38;;;;;;;-0.59;97.26;102240.28;6058659;28;20042;-70
2022/01/19 05:18:39;;;;;;;25.77;8.87;;;;;;;-0.41;97.17;102212.91;6073479;28;20439;-71
2022/01/19 05:21:34;;;;;;;26.77;9.47;;;;;;;-0.23;97.38;102209.81;6063505;28;20445;-71
2022/01/19 05:24:30;;;;;;;32.33;9.27;;;;;;;-0.06;97.59;102202.41;6074039;28;20083;-71
2022/01/19 05:27:25;;;;;;;35.90;10.20;;;;;;;-0.13;97.05;102193.88;6073763;28;20415;-70
2022/01/19 05:30:21;;;;;;;28.87;8.17;;;;;;;-0.11;97.78;102193.88;6073307;28;20491;-69
2022/01/19 05:33:17;;;;;;;27.50;9.75;;;;;;;-0.08;97.23;102178.13;6072071;28;20060;-71
2022/01/19 05:36:12;;;;;;;31.30;9.43;;;;;;;-0.04;97.11;102170.19;6073427;28;20025;-71
2022/01/19 05:39:07;;;;;;;31.53;10.20;;;;;;;0.11;97.38;102168.03;6072367;28;20048;-71
2022/01/19 05:42:03;;;;;;;31.97;9.90;;;;;;;0.29;97.55;102165.75;6059650;28;20026;-71
2022/01/19 05:44:59;;;;;;;38.83;10.73;;;;;;;0.52;97.33;102152.84;6073792;28;20033;-69
2022/01/19 05:47:54;;;;;;;27.38;9.60;;;;;;;0.69;97.35;102162.78;6073570;28;20040;-69
2022/01/19 05:50:49;;;;;;;37.85;11.70;;;;;;;0.89;97.08;102154.34;6072660;28;20057;-71
2022/01/19 05:53:45;;;;;;;31.00;9.77;;;;;;;0.94;97.05;102132.38;6073175;28;20048;-70
2022/01/19 05:56:40;;;;;;;24.97;7.87;;;;;;;0.90;97.35;102132.53;6071931;28;20029;-69
2022/01/19 05:59:35;;;;;;;29.58;9.60;;;;;;;0.86;97.04;102123.97;6072716;28;20170;-71
2022/01/19 06:02:31;;;;;;;29.85;10.38;;;;;;;0.84;96.46;102115.31;6063977;28;20395;-70
2022/01/19 06:05:26;;;;;;;26.33;8.03;;;;;;;0.79;96.06;102117.19;6064355;28;20072;-70
2022/01/19 06:11:17;;;;;;;28.23;9.33;;;;;;;0.67;96.20;102114.16;6069369;28;20079;-71
2022/01/19 06:14:12;;;;;;;35.97;9.23;;;;;;;0.67;95.72;102107.19;6061880;28;20504;-70
2022/01/19 06:17:09;;;;;;;24.77;8.23;;;;;;;0.59;96.12;102115.25;6068210;28;20034;-71
2022/01/19 06:20:05;;;;;;;30.50;8.52;;;;;;;0.51;95.92;102114.66;6071614;28;20030;-69
2022/01/19 06:23:01;;;;;;;28.05;10.20;;;;;;;0.49;96.11;102119.03;6072612;28;20033;-69
2022/01/19 06:25:56;;;;;;;24.80;8.30;;;;;;;0.46;96.07;102107.84;6069161;28;20510;-70
2022/01/19 06:28:52;;;;;;;32.33;9.67;;;;;;;0.51;95.92;102077.25;6061685;28;20083;-70
2022/01/19 06:31:48;;;;;;;21.83;7.57;;;;;;;0.57;96.27;102071.84;6065917;28;20666;-70
2022/01/19 06:34:44;;;;;;;37.50;10.48;;;;;;;0.50;96.30;102083.38;6071999;28;20036;-70
2022/01/19 06:37:39;;;;;;;31.15;9.15;;;;;;;0.50;96.33;102070.31;6062657;28;20033;-70
2022/01/19 06:40:35;;;;;;;29.30;9.63;;;;;;;0.52;95.71;102056.31;6066155;28;20112;-72
2022/01/19 06:43:30;;;;;;;38.35;12.65;;;;;;;0.54;95.40;102048.47;6065427;28;20034;-70
2022/01/19 06:46:25;;;;;;;40.43;12.43;;;;;;;0.62;96.38;102030.78;6087934;28;20086;-70
2022/01/19 06:49:20;;;;;;;27.50;9.57;;;;;;;0.63;96.11;102024.66;6075838;28;20042;-71
2022/01/19 06:52:16;;;;;;;24.93;9.63;;;;;;;0.66;96.48;102021.94;6074449;28;20273;-70
2022/01/19 06:55:11;;;;;;;32.38;11.10;;;;;;;0.70;95.74;102028.78;6076242;28;20520;-68
2022/01/19 06:58:07;;;;;;;36.73;9.70;;;;;;;0.64;95.77;102022.91;6070077;28;20407;-70
2022/01/19 07:01:02;;;;;;;25.57;9.33;;;;;;;0.66;95.96;102027.16;6070206;28;20276;-71
2022/01/19 07:04:02;;;;;;;31.08;9.50;;;;;;;0.69;96.11;102026.19;6080864;28;20392;-69
2022/01/19 07:06:57;;;;;;;24.60;9.48;;;;;;;0.71;95.84;102025.25;6069876;28;20163;-72
2022/01/19 07:09:54;;;;;;;25.30;9.43;;;;;;;0.75;95.68;102032.09;6075980;28;20041;-70
2022/01/19 07:12:50;;;;;;;23.33;10.23;;;;;;;0.90;95.46;102031.56;6075503;28;20030;-69
2022/01/19 07:15:45;;;;;;;20.50;7.97;;;;;;;0.91;95.80;102004.56;6072102;28;20087;-69
2022/01/19 07:18:41;;;;;;;21.50;7.70;;;;;;;1.02;95.19;102007.66;6075936;28;20112;-68
2022/01/19 07:21:36;;;;;;;19.73;7.87;;;;;;;1.06;95.40;101985.72;6074672;28;20047;-69
2022/01/19 07:24:32;;;;;;;20.50;8.97;;;;;;;1.16;95.39;101983.66;6066169;28;20428;-71
2022/01/19 07:27:27;;;;;;;15.75;7.82;;;;;;;1.19;94.86;101981.78;6062320;28;20038;-69
2022/01/19 07:30:23;;;;;;;22.70;8.17;;;;;;;1.24;94.31;101970.31;6064730;28;20104;-71
2022/01/19 07:33:18;;;;;;;21.10;9.23;;;;;;;1.26;94.29;101956.28;6053060;28;20029;-71
2022/01/19 07:36:15;;;;;;;18.60;8.47;;;;;;;1.26;93.93;101955.41;6072051;28;20095;-70
2022/01/19 07:39:10;;;;;;;18.85;8.35;;;;;;;1.22;94.31;101948.63;6066679;28;20018;-68
2022/01/19 07:42:06;;;;;;;22.37;8.67;;;;;;;1.14;94.20;101944.50;6074685;28;20040;-69
2022/01/19 07:45:03;;;;;;;21.52;8.45;;;;;;;1.05;94.42;101937.03;6069744;28;20480;-71
2022/01/19 07:47:58;;;;;;;18.23;7.57;;;;;;;1.06;93.92;101932.66;6052193;28;20025;-70
2022/01/19 07:50:53;;;;;;;17.83;8.67;;;;;;;1.07;94.69;101937.81;6058888;28;20029;-69
2022/01/19 07:53:49;;;;;;;17.90;7.63;;;;;;;1.11;94.71;101949.84;6074629;28;20434;-70
2022/01/19 07:56:44;;;;;;;17.88;7.93;;;;;;;1.06;94.30;101951.78;6071759;28;20036;-71
2022/01/19 07:59:40;;;;;;;15.10;7.57;;;;;;;1.14;94.41;101947.13;6068409;28;20041;-70
2022/01/19 08:02:35;;;;;;;16.67;7.20;;;;;;;1.16;94.26;101955.78;6072334;28;20643;-71
2022/01/19 08:05:31;;;;;;;15.27;7.37;;;;;;;1.16;94.95;101955.78;6072623;28;20037;-71
2022/01/19 08:08:26;;;;;;;17.85;7.88;;;;;;;1.28;94.96;101954.44;6073618;28;20272;-70
2022/01/19 08:11:22;;;;;;;25.55;9.07;;;;;;;1.33;94.34;101959.53;6074366;28;20040;-71
2022/01/19 08:14:18;;;;;;;18.88;7.47;;;;;;;1.47;94.99;101957.25;6074591;28;20112;-73
2022/01/19 08:17:13;;;;;;;21.38;8.48;;;;;;;1.50;94.51;101954.50;6065691;28;20029;-72
2022/01/19 08:20:09;;;;;;;18.75;7.55;;;;;;;1.57;94.46;101949.00;6070030;28;20469;-73
2022/01/19 08:23:06;;;;;;;18.83;8.55;;;;;;;1.63;94.24;101956.59;6071815;28;20393;-72
2022/01/19 08:26:02;;;;;;;29.58;10.20;;;;;;;1.60;94.25;101945.44;6071830;28;20037;-72
2022/01/19 08:28:57;;;;;;;15.95;7.75;;;;;;;1.68;94.19;101946.84;6067578;28;20049;-73
2022/01/19 08:31:53;;;;;;;14.30;6.93;;;;;;;1.74;94.42;101941.34;6071304;28;20025;-72
2022/01/19 08:34:48;;;;;;;14.00;6.80;;;;;;;1.82;94.28;101951.53;6074015;28;20264;-73
2022/01/19 08:37:43;;;;;;;15.13;7.43;;;;;;;1.93;93.89;101951.09;6069789;28;20048;-74
2022/01/19 08:40:39;;;;;;;14.13;6.77;;;;;;;1.92;94.09;101944.16;6077282;28;20034;-73
2022/01/19 08:43:34;;;;;;;15.83;6.53;;;;;;;2.04;93.58;101936.66;6073505;28;20276;-72
2022/01/19 08:46:29;;;;;;;14.07;6.77;;;;;;;2.04;93.31;101938.47;6074171;28;20033;-73
2022/01/19 08:49:24;;;;;;;15.00;7.33;;;;;;;2.06;93.61;101945.31;6073604;28;20033;-72
2022/01/19 08:52:20;;;;;;;15.70;7.27;;;;;;;2.02;93.47;101937.63;6072815;28;20730;-73
2022/01/19 08:55:16;;;;;;;13.03;6.73;;;;;;;2.03;93.18;101940.22;6073678;28;20037;-73
2022/01/19 08:58:13;;;;;;;13.38;7.07;;;;;;;2.02;93.02;101938.50;6073272;28;20284;-73
2022/01/19 09:01:08;;;;;;;15.07;7.35;;;;;;;2.11;93.06;101929.44;6068398;28;20065;-73
2022/01/19 09:04:04;;;;;;;15.47;7.90;;;;;;;2.20;92.28;101931.69;6072337;28;20490;-73
2022/01/19 09:06:59;;;;;;;18.53;7.87;;;;;;;2.19;92.20;101917.75;6064812;28;20064;-73
2022/01/19 09:09:54;;;;;;;20.50;7.23;;;;;;;2.29;92.34;101918.19;6073522;28;20021;-73
2022/01/19 09:12:50;;;;;;;14.27;6.70;;;;;;;2.37;91.86;101918.72;6072714;28;20765;-73
2022/01/19 09:15:45;;;;;;;14.37;7.33;;;;;;;2.36;91.44;101923.09;6073839;28;20489;-72
2022/01/19 09:18:40;;;;;;;15.37;6.87;;;;;;;2.39;90.95;101911.69;6051765;28;20308;-73
2022/01/19 09:21:36;;;;;;;13.07;6.40;;;;;;;2.37;90.47;101916.97;6068547;28;20045;-73
2022/01/19 09:24:31;;;;;;;14.07;6.57;;;;;;;2.33;90.65;101912.81;6070297;28;20044;-72
2022/01/19 09:27:26;;;;;;;13.07;5.87;;;;;;;2.32;90.35;101916.31;6073392;28;20038;-73
2022/01/19 09:30:24;;;;;;;10.87;5.40;;;;;;;2.42;89.94;101909.78;6072567;28;20029;-73
2022/01/19 09:33:20;;;;;;;9.75;5.32;;;;;;;2.44;89.93;101914.09;6074556;28;20032;-72
2022/01/19 09:36:30;;;;;;;13.68;5.28;;;;;;;2.51;89.43;101905.91;6062300;28;20473;-73
2022/01/19 09:39:26;;;;;;;10.65;5.43;;;;;;;2.54;89.43;101899.69;6058085;28;20042;-73
2022/01/19 09:42:21;;;;;;;11.40;5.85;;;;;;;2.50;89.36;101888.50;6068791;28;20481;-73
2022/01/19 09:45:16;;;;;;;11.40;6.27;;;;;;;2.54;89.14;101884.00;6070772;28;20065;-73
2022/01/19 09:48:12;;;;;;;9.30;4.73;;;;;;;2.62;89.18;101880.13;6072741;28;20037;-73
2022/01/19 09:51:07;;;;;;;11.25;4.88;;;;;;;2.67;89.01;101879.91;6072228;28;20068;-72
2022/01/19 09:54:02;;;;;;;10.60;5.15;;;;;;;2.76;89.00;101879.53;6056665;28;20120;-73
2022/01/19 09:56:58;;;;;;;9.57;5.03;;;;;;;2.66;88.94;101866.00;6055026;28;20034;-73
2022/01/19 09:59:53;;;;;;;10.73;4.57;;;;;;;2.77;88.62;101862.91;6061756;28;20110;-73
2022/01/19 10:03:12;;;;;;;8.82;4.70;;;;;;;2.71;88.44;101858.78;6072313;28;20469;-73
2022/01/19 10:06:12;;;;;;;10.70;4.82;;;;;;;2.71;88.01;101853.56;6072759;28;20033;-73
2022/01/19 10:09:07;;;;;;;8.52;4.22;;;;;;;2.75;87.98;101838.53;6061571;28;20037;-73
2022/01/19 10:18:15;;;;;;;;;;;;;;;2.87;87.28;101840.63;6055641;28;20018;-73
2022/01/19 10:21:13;;;;;;;9.27;3.93;;;;;;;2.93;87.56;101835.09;6070737;28;19917;-73
2022/01/19 10:24:12;;;;;;;7.43;3.88;;;;;;;2.98;87.23;101825.25;6077525;28;20107;-73
2022/01/19 10:27:33;;;;;;;7.30;4.00;;;;;;;2.99;86.94;101827.81;6077437;28;20491;-73
2022/01/19 10:30:28;;;;;;;7.80;3.88;;;;;;;2.99;86.55;101824.31;6063733;28;20049;-73
2022/01/19 10:33:24;;;;;;;6.70;3.70;;;;;;;2.93;86.61;101803.69;6078034;28;20033;-73
2022/01/19 10:36:40;;;;;;;7.13;3.73;;;;;;;3.05;86.76;101787.38;6077001;28;20415;-73
2022/01/19 10:39:45;;;;;;;7.43;3.63;;;;;;;3.08;86.80;101776.75;6068573;28;20033;-73
2022/01/19 10:42:40;;;;;;;6.22;3.63;;;;;;;3.11;86.18;101781.84;6062767;28;20072;-73
2022/01/19 10:45:36;;;;;;;7.77;4.63;;;;;;;3.26;86.18;101775.03;6065309;28;20172;-73
2022/01/19 10:48:39;;;;;;;7.20;4.40;;;;;;;3.27;85.98;101767.09;6077396;28;20029;-73
2022/01/19 10:51:44;;;;;;;9.00;4.93;;;;;;;3.36;85.59;101764.03;6072216;28;20037;-73
2022/01/19 10:54:47;;;;;;;5.72;3.30;;;;;;;3.42;85.94;101753.25;6073002;28;20033;-73
2022/01/19 10:57:42;;;;;;;9.20;3.55;;;;;;;3.42;85.31;101747.16;6077419;28;20432;-73
2022/01/19 11:00:37;;;;;;;5.93;3.23;;;;;;;3.39;84.79;101737.69;6076001;28;20087;-74
2022/01/19 11:03:33;;;;;;;8.43;4.87;;;;;;;3.35;85.18;101736.13;6071822;28;20140;-73
2022/01/19 11:06:28;;;;;;;7.77;3.37;;;;;;;3.42;85.42;101728.81;6070047;28;20033;-73
2022/01/19 11:09:25;;;;;;;6.17;3.37;;;;;;;3.42;85.24;101734.06;6064687;28;20034;-73
2022/01/19 11:12:22;;;;;;;5.75;3.15;;;;;;;3.41;85.04;101721.84;6065714;28;20044;-74
2022/01/19 11:15:19;;;;;;;5.90;2.95;;;;;;;3.41;85.17;101716.63;6061037;28;20041;-73
2022/01/19 11:18:14;;;;;;;6.82;3.65;;;;;;;3.42;85.42;101713.94;6077047;28;20112;-73
2022/01/19 11:21:11;;;;;;;5.80;3.30;;;;;;;3.47;85.26;101706.69;6075869;28;20060;-73
2022/01/19 11:24:25;;;;;;;6.82;3.38;;;;;;;3.43;84.25;101712.13;6082433;28;20076;-73
2022/01/19 11:27:22;;;;;;;6.65;3.63;;;;;;;3.37;84.37;101710.66;6074783;28;20041;-73
2022/01/19 11:30:24;;;;;;;6.32;3.55;;;;;;;3.34;83.87;101705.56;6074612;28;20048;-73
2022/01/19 11:33:27;;;;;;;7.53;3.78;;;;;;;3.34;84.06;101700.34;6067996;28;20049;-73
2022/01/19 11:36:26;;;;;;;7.90;3.97;;;;;;;3.32;84.08;101680.38;6074129;28;20029;-73
2022/01/19 11:39:21;;;;;;;6.57;3.58;;;;;;;3.29;84.66;101681.38;6076178;28;20041;-73
2022/01/19 11:42:20;;;;;;;8.10;4.72;;;;;;;3.29;84.50;101683.16;6075632;28;20064;-73
2022/01/19 11:45:34;;;;;;;8.68;4.00;;;;;;;3.24;84.62;101675.50;6075882;28;20069;-73
2022/01/19 11:48:35;;;;;;;6.32;3.80;;;;;;;3.24;85.05;101670.28;6063055;28;20042;-74
2022/01/19 11:51:34;;;;;;;7.35;3.60;;;;;;;3.21;85.58;101659.94;6074757;28;20048;-73
2022/01/19 11:54:33;;;;;;;9.30;4.43;;;;;;;3.12;85.38;101649.06;6077655;28;20064;-73
2022/01/19 11:57:28;;;;;;;8.40;3.80;;;;;;;3.09;85.32;101647.44;6075569;28;20025;-73
2022/01/19 12:00:30;;;;;;;8.18;4.03;;;;;;;3.08;85.19;101640.50;6072710;28;20507;-73
2022/01/19 12:03:32;;;;;;;6.95;3.40;;;;;;;3.09;85.69;101626.50;6068139;28;20033;-73
2022/01/19 12:06:33;;;;;;;10.18;3.83;;;;;;;3.06;84.99;101610.06;6076507;28;20098;-73
2022/01/19 12:09:55;;;;;;;9.02;3.95;;;;;;;3.09;84.75;101592.44;6084285;28;20042;-74
2022/01/19 12:13:32;;;;;;;12.38;4.22;;;;;;;3.11;84.92;101593.19;6078460;28;20498;-73
2022/01/19 12:16:50;;;;;;;8.35;4.20;;;;;;;3.05;84.50;101576.94;6069010;28;20032;-73
2022/01/19 12:19:45;;;;;;;8.20;3.40;;;;;;;3.09;84.34;101579.34;6075221;28;20112;-73
2022/01/19 12:22:40;;;;;;;7.73;4.20;;;;;;;3.06;85.05;101574.25;6079203;28;20043;-73
2022/01/19 12:25:53;;;;;;;9.43;4.35;;;;;;;3.06;85.05;101573.38;6060178;28;20099;-74
2022/01/19 12:28:53;;;;;;;11.40;5.05;;;;;;;3.04;84.76;101565.63;6063648;28;20088;-73
2022/01/19 12:31:49;;;;;;;7.63;4.20;;;;;;;3.03;85.05;101556.06;6070399;28;20092;-73
2022/01/19 12:34:54;;;;;;;8.70;4.80;;;;;;;3.08;84.50;101555.81;6074234;28;20037;-73
2022/01/19 12:37:55;;;;;;;7.15;4.07;;;;;;;3.06;84.14;101548.06;6075013;28;20112;-73
2022/01/19 12:40:56;;;;;;;9.13;4.18;;;;;;;3.05;84.36;101542.88;6073448;28;20382;-73
2022/01/19 12:43:51;;;;;;;10.60;4.72;;;;;;;3.03;85.13;101542.97;6072796;28;20156;-73
2022/01/19 12:46:49;;;;;;;7.77;4.57;;;;;;;3.02;84.34;101530.78;6086255;28;20468;-73
2022/01/19 12:49:46;;;;;;;7.25;4.43;;;;;;;2.98;84.44;101529.25;6051085;28;20038;-73
2022/01/19 12:52:44;;;;;;;9.55;5.55;;;;;;;2.98;84.51;101534.50;6072082;28;20037;-73
2022/01/19 12:55:41;;;;;;;11.20;5.20;;;;;;;2.95;84.34;101532.03;6073988;28;20067;-73
2022/01/19 12:58:37;;;;;;;10.80;5.75;;;;;;;2.96;84.67;101523.25;6073987;28;20124;-74
2022/01/19 13:01:33;;;;;;;10.27;5.25;;;;;;;3.02;84.62;101525.53;6079123;28;20120;-73
2022/01/19 13:04:31;;;;;;;8.52;4.97;;;;;;;3.03;83.96;101516.75;6070388;28;20516;-73
2022/01/19 13:07:29;;;;;;;9.27;5.28;;;;;;;3.05;83.63;101524.53;6073444;28;20021;-73
2022/01/19 13:10:43;;;;;;;11.07;5.78;;;;;;;3.02;83.53;101512.44;6072910;28;20392;-74
2022/01/19 13:13:47;;;;;;;8.93;5.32;;;;;;;3.08;83.82;101496.41;6064609;28;20032;-73
2022/01/19 13:16:44;;;;;;;10.45;4.97;;;;;;;3.09;83.16;101489.41;6068102;28;20033;-73
2022/01/19 13:19:40;;;;;;;9.90;5.57;;;;;;;3.06;83.52;101472.06;6065818;28;20041;-73
2022/01/19 13:22:47;;;;;;;8.27;5.10;;;;;;;3.10;83.29;101473.59;6070637;28;20048;-73
2022/01/19 13:25:42;;;;;;;13.18;5.78;;;;;;;3.11;83.87;101459.56;6064858;28;20272;-73
2022/01/19 13:28:38;;;;;;;15.77;5.67;;;;;;;3.05;83.48;101444.16;6070913;28;20117;-73
2022/01/19 13:31:33;;;;;;;13.55;6.28;;;;;;;3.07;84.14;101434.47;6071262;28;20037;-73
2022/01/19 13:34:31;;;;;;;10.80;5.40;;;;;;;3.08;83.09;101430.06;6068145;28;20033;-73
2022/01/19 13:37:37;;;;;;;9.95;5.35;;;;;;;3.14;83.00;101429.75;6067076;28;20033;-73
2022/01/19 13:40:33;;;;;;;10.93;5.70;;;;;;;3.12;82.83;101424.59;6059332;28;20061;-72
2022/01/19 13:43:31;;;;;;;9.52;5.45;;;;;;;3.11;83.64;101415.03;6071839;28;20087;-74
2022/01/19 13:46:29;;;;;;;9.77;5.85;;;;;;;3.11;82.51;101412.41;6071545;28;20037;-73
2022/01/19 13:49:25;;;;;;;12.02;5.80;;;;;;;3.15;83.12;101411.34;6071816;28;20415;-73
2022/01/19 13:52:25;;;;;;;12.87;5.57;;;;;;;3.15;82.92;101394.78;6071477;28;20079;-73
2022/01/19 13:55:22;;;;;;;11.13;5.70;;;;;;;3.15;83.15;101400.88;6070555;28;20638;-73
2022/01/19 13:58:17;;;;;;;10.85;5.90;;;;;;;3.15;83.24;101390.38;6072443;28;20124;-73
2022/01/19 14:01:19;;;;;;;11.30;6.10;;;;;;;3.15;82.41;101385.13;6071016;28;20775;-74
2022/01/19 14:04:14;;;;;;;12.50;6.25;;;;;;;3.19;82.61;101375.31;6058834;28;20079;-73
2022/01/19 14:07:12;;;;;;;13.17;6.00;;;;;;;3.21;83.00;101382.16;6070655;28;20041;-73
2022/01/19 14:10:08;;;;;;;12.90;6.43;;;;;;;3.20;82.85;101377.03;6071967;28;20363;-73
2022/01/19 14:13:39;;;;;;;12.73;6.85;;;;;;;3.30;82.21;101379.06;6057988;28;20079;-73
2022/01/19 14:16:38;;;;;;;16.58;7.07;;;;;;;3.21;82.36;101378.69;6057833;28;20124;-73
2022/01/19 14:19:47;;;;;;;15.48;6.70;;;;;;;3.21;83.37;101374.31;6069535;28;20040;-73
2022/01/19 14:22:42;;;;;;;14.68;6.80;;;;;;;3.26;83.30;101374.91;6066883;28;20449;-73
2022/01/19 14:25:37;;;;;;;13.57;6.47;;;;;;;3.21;83.19;101361.19;6067989;28;20034;-73
2022/01/19 14:28:35;;;;;;;15.83;7.37;;;;;;;3.24;82.54;101357.56;6068055;28;20039;-74
2022/01/19 14:31:30;;;;;;;16.38;7.35;;;;;;;3.17;83.38;101341.34;6063695;28;20501;-73
2022/01/19 14:34:37;;;;;;;15.87;7.87;;;;;;;3.24;82.73;101353.19;6063980;28;20042;-73
2022/01/19 14:37:35;;;;;;;14.98;7.05;;;;;;;3.20;82.66;101341.19;6067898;28;20943;-73
2022/01/19 14:40:33;;;;;;;14.05;7.05;;;;;;;3.22;83.04;101347.19;6068285;28;20772;-73
2022/01/19 14:43:38;;;;;;;15.18;7.10;;;;;;;3.23;82.81;101330.53;6068380;28;20139;-73
2022/01/19 14:46:41;;;;;;;14.07;6.80;;;;;;;3.24;83.12;101324.34;6061897;28;20436;-73
2022/01/19 14:49:36;;;;;;;14.40;6.78;;;;;;;3.24;82.61;101306.00;6067371;28;20037;-73
2022/01/19 14:52:32;;;;;;;17.80;7.55;;;;;;;3.23;82.84;101309.59;6069556;28;20033;-73
2022/01/19 14:55:29;;;;;;;16.20;7.80;;;;;;;3.20;83.12;101301.88;6065182;28;20083;-73
2022/01/19 14:58:28;;;;;;;13.27;6.43;;;;;;;3.19;83.00;101289.69;6076397;28;20128;-73
2022/01/19 15:01:24;;;;;;;18.27;7.30;;;;;;;3.14;83.37;101281.25;6071723;28;20033;-73
2022/01/19 15:04:20;;;;;;;15.87;6.60;;;;;;;3.13;83.66;101278.69;6064293;28;20048;-74
2022/01/19 15:07:15;;;;;;;15.57;6.70;;;;;;;3.05;83.73;101260.78;6073090;28;20112;-73
2022/01/19 15:10:11;;;;;;;15.00;7.13;;;;;;;3.06;84.26;101254.63;6066898;28;20041;-73
2022/01/19 15:13:07;;;;;;;15.63;6.88;;;;;;;3.07;84.43;101255.50;6069459;28;20037;-73
2022/01/19 15:16:02;;;;;;;25.63;8.43;;;;;;;3.03;84.78;101252.19;6074237;28;20100;-73